Time;durP1;ratioP1;P1;durP2;ratioP2;P2;SDS_P1;SDS_P2;PMS_P1;PMS_P2;Temp;Humidity;BMP_temperature;BMP_pressure;BME280_temperature;BME280_humidity;BME280_pressure;Samples;Min_cycle;Max_cycle;Signal;HPM_P1;HPM_P2
2021/10/16 00:01:53;;;;;;;0.50;0.50;;;2.50;99.90;;;;;;5022926;28;20037;-67
2021/10/16 00:04:19;;;;;;;0.50;0.50;;;2.50;99.90;;;;;;5031714;28;20078;-67
2021/10/16 00:06:44;;;;;;;0.50;0.50;;;2.60;99.90;;;;;;5031398;28;20591;-67
2021/10/16 00:09:10;;;;;;;0.50;0.50;;;2.50;99.90;;;;;;5016696;28;20045;-67
2021/10/16 00:11:36;;;;;;;0.40;0.40;;;2.50;99.90;;;;;;5028971;28;20020;-67
2021/10/16 00:14:02;;;;;;;0.50;0.50;;;2.50;99.90;;;;;;5025824;28;20045;-67
2021/10/16 00:16:28;;;;;;;0.50;0.50;;;2.50;99.90;;;;;;5022273;28;20374;-67
2021/10/16 00:18:54;;;;;;;0.50;0.50;;;2.50;99.90;;;;;;5028437;28;20029;-67
2021/10/16 00:21:20;;;;;;;0.40;0.40;;;2.50;99.90;;;;;;5020822;28;20029;-67
2021/10/16 00:23:46;;;;;;;0.50;0.50;;;2.50;99.90;;;;;;5031154;28;20029;-67
2021/10/16 00:26:13;;;;;;;0.50;0.50;;;2.50;99.90;;;;;;5030039;28;20064;-67
2021/10/16 00:28:39;;;;;;;0.40;0.40;;;2.50;99.90;;;;;;5031355;28;20021;-67
2021/10/16 00:31:04;;;;;;;0.50;0.50;;;2.50;99.90;;;;;;5031159;28;20091;-67
2021/10/16 00:33:30;;;;;;;0.40;0.40;;;2.60;99.90;;;;;;5031567;28;20038;-67
2021/10/16 00:35:56;;;;;;;0.40;0.40;;;2.60;99.90;;;;;;5031231;28;20021;-67
2021/10/16 00:38:22;;;;;;;0.50;0.50;;;2.60;99.90;;;;;;5031219;28;20492;-66
2021/10/16 00:40:47;;;;;;;0.40;0.40;;;2.50;99.90;;;;;;5031554;28;20026;-66
2021/10/16 00:43:14;;;;;;;0.40;0.40;;;2.50;99.90;;;;;;5035207;28;20033;-66
2021/10/16 00:45:40;;;;;;;0.40;0.40;;;2.50;99.90;;;;;;5035193;28;20064;-66
2021/10/16 00:48:05;;;;;;;0.45;0.45;;;2.50;99.90;;;;;;5031095;28;20054;-66
2021/10/16 00:50:31;;;;;;;3.50;0.60;;;2.50;99.90;;;;;;5017361;28;20076;-66
2021/10/16 00:52:57;;;;;;;0.50;0.50;;;2.50;99.90;;;;;;5034852;28;20040;-66
2021/10/16 00:55:24;;;;;;;0.60;0.60;;;2.50;99.90;;;;;;5034946;28;20091;-66
2021/10/16 00:57:50;;;;;;;0.52;0.52;;;2.50;99.90;;;;;;5034846;28;20024;-66
2021/10/16 01:00:16;;;;;;;0.50;0.50;;;2.50;99.90;;;;;;5034937;28;20025;-67
2021/10/16 01:02:42;;;;;;;0.40;0.40;;;2.50;99.90;;;;;;5034638;28;20076;-66
2021/10/16 01:05:10;;;;;;;0.50;0.50;;;2.50;99.90;;;;;;5034793;28;20108;-66
2021/10/16 01:07:37;;;;;;;0.50;0.50;;;2.50;99.90;;;;;;5034584;28;20667;-66
2021/10/16 01:10:04;;;;;;;0.50;0.50;;;2.50;99.90;;;;;;5021123;28;20060;-66
2021/10/16 01:12:31;;;;;;;0.40;0.40;;;2.50;99.90;;;;;;5034624;28;20036;-66
2021/10/16 01:15:02;;;;;;;0.50;0.50;;;2.50;99.90;;;;;;5034417;28;20056;-67
2021/10/16 01:17:32;;;;;;;0.40;0.40;;;2.50;99.90;;;;;;5034604;28;20028;-67
2021/10/16 01:20:08;;;;;;;0.40;0.40;;;2.50;99.90;;;;;;5034330;28;20029;-67
2021/10/16 01:22:36;;;;;;;0.40;0.40;;;2.50;99.90;;;;;;5034597;28;20040;-67
2021/10/16 01:25:05;;;;;;;0.47;0.47;;;2.50;99.90;;;;;;5034487;28;20044;-67
2021/10/16 01:27:32;;;;;;;0.45;0.45;;;2.50;99.90;;;;;;5034535;28;20048;-67
2021/10/16 01:29:58;;;;;;;0.60;0.60;;;2.50;99.90;;;;;;5034493;28;20053;-67
2021/10/16 01:32:24;;;;;;;3.70;0.40;;;2.50;99.90;;;;;;5034139;28;20475;-67
2021/10/16 01:34:50;;;;;;;0.52;0.52;;;2.50;99.90;;;;;;5034098;28;20061;-67
2021/10/16 01:37:15;;;;;;;0.40;0.40;;;2.50;99.90;;;;;;5034499;28;20061;-67
2021/10/16 01:39:41;;;;;;;0.50;0.50;;;2.40;99.90;;;;;;5034451;28;20021;-66
2021/10/16 01:42:12;;;;;;;0.40;0.40;;;2.50;99.90;;;;;;5026012;28;20100;-67
2021/10/16 01:44:41;;;;;;;2.08;0.50;;;2.50;99.90;;;;;;5034319;28;20029;-67
2021/10/16 01:47:08;;;;;;;0.83;0.50;;;2.50;99.90;;;;;;5033886;28;20022;-67
2021/10/16 01:49:34;;;;;;;0.50;0.50;;;2.50;99.90;;;;;;5033989;28;20355;-67
2021/10/16 01:52:00;;;;;;;0.50;0.50;;;2.50;99.90;;;;;;5022311;28;20026;-67
2021/10/16 01:54:25;;;;;;;0.57;0.57;;;2.50;99.90;;;;;;5030555;28;20045;-67
2021/10/16 01:56:51;;;;;;;0.50;0.50;;;2.40;99.90;;;;;;5033739;28;20025;-67
2021/10/16 01:59:19;;;;;;;0.50;0.50;;;2.40;99.90;;;;;;5034059;28;20021;-67
2021/10/16 02:01:46;;;;;;;0.50;0.50;;;2.50;99.90;;;;;;5023399;28;20032;-67
2021/10/16 02:04:12;;;;;;;0.50;0.50;;;2.50;99.90;;;;;;5028852;28;20381;-67
2021/10/16 02:06:38;;;;;;;0.50;0.50;;;2.40;99.90;;;;;;5033634;28;20029;-67
2021/10/16 02:09:05;;;;;;;0.40;0.40;;;2.40;99.90;;;;;;5033585;28;20053;-67
2021/10/16 02:11:32;;;;;;;0.40;0.40;;;2.50;99.90;;;;;;5033578;28;20033;-67
2021/10/16 02:13:58;;;;;;;0.50;0.50;;;2.40;99.90;;;;;;5033534;28;20044;-67
2021/10/16 02:16:25;;;;;;;1.23;0.50;;;2.40;99.90;;;;;;5033717;28;20025;-67
2021/10/16 02:18:51;;;;;;;1.98;0.60;;;2.40;99.90;;;;;;5033425;28;20075;-67
2021/10/16 02:21:17;;;;;;;0.50;0.50;;;2.40;99.90;;;;;;5033519;28;20021;-67
2021/10/16 02:55:12;;;;;;;0.50;0.50;;;2.40;99.90;;;;;;5020565;28;20050;-66
2021/10/16 02:57:37;;;;;;;0.50;0.50;;;2.40;99.90;;;;;;5031143;28;20496;-66
2021/10/16 03:00:04;;;;;;;0.50;0.50;;;2.40;99.90;;;;;;5033026;28;20029;-66
2021/10/16 03:02:30;;;;;;;0.60;0.60;;;2.40;99.90;;;;;;5032526;28;20026;-66
2021/10/16 03:04:56;;;;;;;0.50;0.50;;;2.40;99.90;;;;;;5031187;28;20028;-66
2021/10/16 03:07:22;;;;;;;0.50;0.50;;;2.40;99.90;;;;;;5012851;28;20496;-66
2021/10/16 03:09:48;;;;;;;0.60;0.60;;;2.40;99.90;;;;;;5031667;28;20087;-66
2021/10/16 03:12:13;;;;;;;0.40;0.40;;;2.40;99.90;;;;;;5020699;28;20108;-66
2021/10/16 03:14:39;;;;;;;0.50;0.40;;;2.40;99.90;;;;;;5022208;28;20037;-66
2021/10/16 03:17:05;;;;;;;0.52;0.50;;;2.40;99.90;;;;;;5032185;28;20400;-66
2021/10/16 03:19:31;;;;;;;0.50;0.50;;;2.40;99.90;;;;;;5032180;28;20580;-66
2021/10/16 03:21:56;;;;;;;0.95;0.50;;;2.40;99.90;;;;;;5032580;28;20099;-66
2021/10/16 03:24:23;;;;;;;0.50;0.50;;;2.40;99.90;;;;;;5032381;28;20393;-66
2021/10/16 03:26:49;;;;;;;0.50;0.50;;;2.40;99.90;;;;;;5032106;28;20558;-66
2021/10/16 03:29:15;;;;;;;2.53;0.63;;;2.40;99.90;;;;;;5031967;28;20055;-66
2021/10/16 03:31:41;;;;;;;1.02;0.60;;;2.40;99.90;;;;;;5032293;28;20021;-66
2021/10/16 03:34:07;;;;;;;0.50;0.50;;;2.40;99.90;;;;;;5032277;28;20033;-66
2021/10/16 03:36:33;;;;;;;0.40;0.40;;;2.40;99.90;;;;;;5031950;28;20032;-66
2021/10/16 03:38:59;;;;;;;0.68;0.60;;;2.40;99.90;;;;;;5023916;28;20117;-67
2021/10/16 03:41:24;;;;;;;0.50;0.50;;;2.40;99.90;;;;;;5027043;28;20034;-66
2021/10/16 03:43:50;;;;;;;0.60;0.60;;;2.40;99.90;;;;;;5023460;28;20492;-67
2021/10/16 03:46:16;;;;;;;0.50;0.50;;;2.40;99.90;;;;;;5031721;28;20184;-67
2021/10/16 03:48:42;;;;;;;1.17;0.60;;;2.40;99.90;;;;;;5031862;28;20025;-66
2021/10/16 03:51:08;;;;;;;0.60;0.60;;;2.40;99.90;;;;;;5032251;28;20107;-66
2021/10/16 03:53:34;;;;;;;0.60;0.60;;;2.40;99.90;;;;;;5031570;28;20127;-68
2021/10/16 03:55:59;;;;;;;0.80;0.50;;;2.40;99.90;;;;;;5031633;28;20529;-67
2021/10/16 03:58:25;;;;;;;0.52;0.52;;;2.40;99.90;;;;;;5031585;28;20030;-67
2021/10/16 04:00:53;;;;;;;0.60;0.60;;;2.40;99.90;;;;;;5031909;28;20053;-67
2021/10/16 04:03:18;;;;;;;0.47;0.47;;;2.40;99.90;;;;;;5031469;28;20034;-67
2021/10/16 04:05:45;;;;;;;0.60;0.60;;;2.40;99.90;;;;;;5031620;28;20075;-67
2021/10/16 04:08:10;;;;;;;0.60;0.60;;;2.40;99.90;;;;;;5029018;28;20112;-67
2021/10/16 04:10:36;;;;;;;0.50;0.50;;;2.40;99.90;;;;;;5026255;28;20155;-67
2021/10/16 04:13:03;;;;;;;0.60;0.60;;;2.40;99.90;;;;;;5031429;28;20470;-67
2021/10/16 04:15:28;;;;;;;0.60;0.60;;;2.40;99.90;;;;;;5030990;28;20026;-67
2021/10/16 04:17:54;;;;;;;0.60;0.60;;;2.40;99.90;;;;;;5031586;28;20104;-67
2021/10/16 04:20:21;;;;;;;0.63;0.60;;;2.40;99.90;;;;;;5019707;28;20159;-67
2021/10/16 04:22:47;;;;;;;4.65;0.68;;;2.40;99.90;;;;;;5029962;28;20025;-67
2021/10/16 04:25:13;;;;;;;0.60;0.60;;;2.40;99.90;;;;;;5031707;28;20056;-66
2021/10/16 04:27:39;;;;;;;0.65;0.60;;;2.40;99.90;;;;;;5031605;28;20043;-67
2021/10/16 04:30:06;;;;;;;0.50;0.50;;;2.40;99.90;;;;;;5031846;28;20561;-67
2021/10/16 04:32:34;;;;;;;0.60;0.60;;;2.40;99.90;;;;;;5031122;28;20061;-70
2021/10/16 04:35:00;;;;;;;0.70;0.70;;;2.40;99.90;;;;;;5017502;28;20017;-67
2021/10/16 04:37:26;;;;;;;0.93;0.60;;;2.40;99.90;;;;;;5031155;28;20053;-67
2021/10/16 04:39:52;;;;;;;8.32;0.75;;;2.40;99.90;;;;;;5023218;28;20061;-71
2021/10/16 04:42:18;;;;;;;0.65;0.65;;;2.50;99.90;;;;;;5031012;28;20021;-69
2021/10/16 04:44:44;;;;;;;3.50;0.70;;;5.10;99.90;;;;;;5031399;28;20385;-67
2021/10/16 04:47:09;;;;;;;0.60;0.60;;;4.90;99.90;;;;;;5017212;28;20473;-68
2021/10/16 04:49:36;;;;;;;0.50;0.50;;;4.20;99.90;;;;;;5020908;28;20038;-67
2021/10/16 04:52:04;;;;;;;0.60;0.57;;;3.70;99.90;;;;;;5012746;28;20042;-67
2021/10/16 04:54:30;;;;;;;0.40;0.40;;;3.40;99.90;;;;;;5019782;28;20038;-68
2021/10/16 04:56:55;;;;;;;0.60;0.60;;;3.20;99.90;;;;;;5015310;28;20042;-67
2021/10/16 04:59:21;;;;;;;0.60;0.60;;;3.00;99.90;;;;;;5019278;28;20036;-67
2021/10/16 05:01:47;;;;;;;1.98;0.60;;;2.90;99.90;;;;;;5016522;28;20041;-67
2021/10/16 05:04:12;;;;;;;0.60;0.60;;;2.80;99.90;;;;;;5014178;28;20079;-67
2021/10/16 05:06:38;;;;;;;0.43;0.43;;;2.70;99.90;;;;;;5018184;28;20022;-67
2021/10/16 05:09:04;;;;;;;1.58;0.55;;;2.70;99.90;;;;;;5016277;28;20100;-67
2021/10/16 05:11:30;;;;;;;0.50;0.50;;;2.70;99.90;;;;;;5013260;28;20653;-67
2021/10/16 05:13:55;;;;;;;0.98;0.55;;;2.60;99.90;;;;;;5021748;28;20044;-67
2021/10/16 05:16:21;;;;;;;0.60;0.60;;;2.60;99.90;;;;;;5011732;28;20030;-67
2021/10/16 05:18:47;;;;;;;0.70;0.70;;;2.60;99.90;;;;;;5014675;28;20030;-68
2021/10/16 05:21:13;;;;;;;0.60;0.60;;;2.60;99.90;;;;;;5011854;28;20033;-69
2021/10/16 05:23:39;;;;;;;0.60;0.60;;;2.50;99.90;;;;;;5020876;28;20362;-69
2021/10/16 05:26:05;;;;;;;0.50;0.50;;;2.50;99.90;;;;;;5013203;28;20022;-70
2021/10/16 05:28:31;;;;;;;0.57;0.57;;;2.40;99.90;;;;;;5027968;28;20034;-69
2021/10/16 05:30:56;;;;;;;0.60;0.60;;;2.60;99.90;;;;;;5025907;28;20073;-69
2021/10/16 05:33:22;;;;;;;0.68;0.68;;;2.50;99.90;;;;;;5028366;28;20042;-69
2021/10/16 05:35:48;;;;;;;2.28;0.60;;;2.50;99.90;;;;;;5034320;28;20021;-69
2021/10/16 05:38:14;;;;;;;0.50;0.50;;;2.50;99.90;;;;;;5034375;28;20029;-69
2021/10/16 05:40:41;;;;;;;0.50;0.50;;;2.40;99.90;;;;;;5034463;28;20399;-69
2021/10/16 05:43:07;;;;;;;0.70;0.70;;;2.60;99.90;;;;;;5033805;28;20026;-67
2021/10/16 05:45:33;;;;;;;0.55;0.55;;;2.60;99.90;;;;;;5026666;28;20029;-66
2021/10/16 05:47:59;;;;;;;0.63;0.63;;;2.50;99.90;;;;;;5030673;28;20029;-67
2021/10/16 05:50:24;;;;;;;0.70;0.70;;;2.50;99.90;;;;;;5014169;28;20021;-68
2021/10/16 05:52:51;;;;;;;0.60;0.60;;;2.40;99.90;;;;;;5031724;28;20045;-68
2021/10/16 05:55:16;;;;;;;0.50;0.50;;;2.40;99.90;;;;;;5033795;28;20069;-68
2021/10/16 05:57:42;;;;;;;1.98;0.70;;;2.40;99.90;;;;;;5019795;28;20053;-68
2021/10/16 06:00:09;;;;;;;2.65;0.75;;;2.40;99.90;;;;;;5034089;28;20028;-69
2021/10/16 06:02:35;;;;;;;0.40;0.40;;;2.40;99.90;;;;;;5017610;28;20108;-69
2021/10/16 06:05:00;;;;;;;0.60;0.60;;;2.40;99.90;;;;;;5030672;28;20055;-70
2021/10/16 06:07:26;;;;;;;0.82;0.55;;;2.40;99.90;;;;;;5033450;28;20033;-71
2021/10/16 06:09:52;;;;;;;0.65;0.65;;;2.40;99.90;;;;;;5033483;28;20025;-71
2021/10/16 06:12:18;;;;;;;1.30;0.63;;;2.40;99.90;;;;;;5033412;28;20017;-71
2021/10/16 06:14:44;;;;;;;1.17;0.60;;;2.40;99.90;;;;;;5033706;28;20060;-71
2021/10/16 06:17:10;;;;;;;0.50;0.50;;;2.40;99.90;;;;;;5033396;28;20024;-67
2021/10/16 06:19:35;;;;;;;3.25;0.80;;;2.40;99.90;;;;;;5033713;28;20040;-67
2021/10/16 06:22:02;;;;;;;0.65;0.63;;;2.40;99.90;;;;;;5033877;28;20032;-68
2021/10/16 06:24:28;;;;;;;1.55;0.60;;;2.40;99.90;;;;;;5033354;28;20470;-66
2021/10/16 06:26:53;;;;;;;0.57;0.57;;;2.30;99.90;;;;;;5032695;28;20079;-67
2021/10/16 06:29:19;;;;;;;0.60;0.60;;;2.30;99.90;;;;;;5033613;28;20392;-68
2021/10/16 06:31:45;;;;;;;0.93;0.85;;;2.30;99.90;;;;;;5033789;28;20488;-69
2021/10/16 06:34:11;;;;;;;1.67;0.65;;;2.30;99.90;;;;;;5032987;28;20091;-68
2021/10/16 06:36:36;;;;;;;0.98;0.50;;;2.40;99.90;;;;;;5033060;28;20097;-68
2021/10/16 06:39:02;;;;;;;0.50;0.50;;;2.40;99.90;;;;;;5032672;28;20075;-68
2021/10/16 06:41:28;;;;;;;0.60;0.60;;;2.40;99.90;;;;;;5033090;28;20017;-69
2021/10/16 06:43:54;;;;;;;0.60;0.60;;;2.40;99.90;;;;;;5032824;28;20132;-70
2021/10/16 06:46:19;;;;;;;0.52;0.50;;;2.40;99.90;;;;;;5020404;28;20026;-69
2021/10/16 06:48:45;;;;;;;1.23;0.93;;;2.40;99.90;;;;;;5017424;28;20032;-67
2021/10/16 06:51:11;;;;;;;1.05;0.85;;;2.40;99.90;;;;;;5026670;28;20057;-70
2021/10/16 06:53:38;;;;;;;0.52;0.52;;;2.40;99.90;;;;;;5026068;28;20030;-68
2021/10/16 06:56:04;;;;;;;0.50;0.50;;;2.40;99.90;;;;;;5032885;28;20033;-69
2021/10/16 06:58:29;;;;;;;2.30;1.23;;;2.40;99.90;;;;;;5028747;28;20029;-68
2021/10/16 07:00:55;;;;;;;1.77;0.90;;;2.30;99.90;;;;;;5029089;28;20021;-68
2021/10/16 07:03:21;;;;;;;1.38;0.90;;;2.30;99.90;;;;;;5028791;28;20659;-68
2021/10/16 07:05:47;;;;;;;3.50;1.10;;;2.30;99.90;;;;;;5032581;28;20032;-67
2021/10/16 07:08:12;;;;;;;0.70;0.70;;;2.40;99.90;;;;;;5032524;28;20037;-64
2021/10/16 07:10:38;;;;;;;0.70;0.70;;;2.30;99.90;;;;;;5032265;28;20085;-65
2021/10/16 07:13:06;;;;;;;0.70;0.70;;;2.30;99.90;;;;;;5032566;28;20136;-65
2021/10/16 07:15:32;;;;;;;0.70;0.70;;;2.50;99.90;;;;;;5032535;28;20029;-65
2021/10/16 07:17:58;;;;;;;1.05;0.95;;;2.50;99.90;;;;;;5032348;28;20017;-65
2021/10/16 07:20:24;;;;;;;1.55;1.42;;;2.50;99.90;;;;;;5032212;28;20044;-65
2021/10/16 07:22:50;;;;;;;0.90;0.90;;;2.40;99.90;;;;;;5032084;28;20035;-65
2021/10/16 07:25:16;;;;;;;0.60;0.60;;;2.40;99.90;;;;;;5032463;28;20018;-65
2021/10/16 07:27:41;;;;;;;0.80;0.80;;;2.40;99.90;;;;;;5031856;28;20025;-65
2021/10/16 07:30:08;;;;;;;0.80;0.80;;;2.40;99.90;;;;;;5025516;28;20022;-65
2021/10/16 07:32:34;;;;;;;0.80;0.80;;;2.40;99.90;;;;;;5028743;28;20494;-65
2021/10/16 07:35:00;;;;;;;1.08;0.60;;;2.40;99.90;;;;;;5032045;28;20104;-65
2021/10/16 07:37:26;;;;;;;1.35;1.20;;;2.40;99.90;;;;;;5030516;28;20044;-64
2021/10/16 07:39:52;;;;;;;1.40;0.70;;;2.40;99.90;;;;;;5032231;28;20385;-65
2021/10/16 07:42:17;;;;;;;0.60;0.60;;;2.40;99.90;;;;;;5032114;28;20116;-65
2021/10/16 07:44:43;;;;;;;0.70;0.70;;;2.40;99.90;;;;;;5032234;28;20472;-65
2021/10/16 07:47:09;;;;;;;0.60;0.60;;;2.40;99.90;;;;;;5031534;28;20024;-65
2021/10/16 07:49:34;;;;;;;0.60;0.60;;;2.40;99.90;;;;;;5023838;28;20017;-65
2021/10/16 07:52:00;;;;;;;0.60;0.60;;;2.40;99.90;;;;;;5012863;28;20032;-66
2021/10/16 07:54:26;;;;;;;4.63;2.55;;;2.40;99.90;;;;;;5029575;28;20431;-66
2021/10/16 07:56:52;;;;;;;3.17;0.77;;;3.00;99.90;;;;;;5019141;28;20113;-66
2021/10/16 07:59:18;;;;;;;2.20;1.25;;;3.50;99.90;;;;;;5028414;28;20029;-65
2021/10/16 08:01:43;;;;;;;0.70;0.70;;;3.50;99.90;;;;;;5024550;28;20469;-64
2021/10/16 08:04:09;;;;;;;1.25;0.70;;;4.10;99.90;;;;;;5031540;28;20481;-65
2021/10/16 08:06:35;;;;;;;0.70;0.70;;;3.60;99.90;;;;;;5031357;28;20029;-64
2021/10/16 08:09:02;;;;;;;0.73;0.73;;;3.20;99.90;;;;;;5031497;28;20026;-64
2021/10/16 08:11:28;;;;;;;0.40;0.40;;;2.90;99.90;;;;;;5031760;28;20040;-64
2021/10/16 08:13:53;;;;;;;0.60;0.60;;;2.70;99.90;;;;;;5031368;28;20041;-64
2021/10/16 08:16:19;;;;;;;0.80;0.80;;;2.50;99.90;;;;;;5030225;28;20057;-64
2021/10/16 08:18:45;;;;;;;0.65;0.65;;;2.40;99.90;;;;;;5026749;28;20025;-64
2021/10/16 08:21:11;;;;;;;0.88;0.68;;;2.40;99.90;;;;;;5028345;28;20029;-64
2021/10/16 08:23:36;;;;;;;0.50;0.50;;;2.30;99.90;;;;;;5031255;28;20391;-64
2021/10/16 08:26:02;;;;;;;1.42;0.70;;;2.30;99.90;;;;;;5031431;28;20075;-64
2021/10/16 08:28:29;;;;;;;1.65;0.75;;;2.20;99.90;;;;;;5031335;28;20025;-64
2021/10/16 08:30:56;;;;;;;0.80;0.80;;;2.20;99.90;;;;;;5031818;28;20029;-64
2021/10/16 08:33:23;;;;;;;0.60;0.60;;;2.20;99.90;;;;;;5031101;28;20026;-64
2021/10/16 08:35:49;;;;;;;2.25;0.80;;;2.20;99.90;;;;;;5031604;28;20037;-64
2021/10/16 08:38:15;;;;;;;0.60;0.60;;;2.20;99.90;;;;;;5031111;28;20013;-64
2021/10/16 08:40:42;;;;;;;0.70;0.70;;;2.20;99.90;;;;;;5031197;28;20064;-64
2021/10/16 08:43:08;;;;;;;0.90;0.68;;;2.20;99.90;;;;;;5015384;28;20470;-64
2021/10/16 08:45:35;;;;;;;0.50;0.50;;;2.20;99.90;;;;;;5018546;28;20068;-64
2021/10/16 08:48:04;;;;;;;0.95;0.80;;;2.20;99.90;;;;;;5017410;28;20033;-64
2021/10/16 08:50:31;;;;;;;1.27;0.80;;;2.20;99.90;;;;;;5031234;28;20068;-64
2021/10/16 08:52:57;;;;;;;0.70;0.70;;;2.20;99.90;;;;;;5031078;28;20034;-64
2021/10/16 08:55:22;;;;;;;0.70;0.70;;;2.20;99.90;;;;;;5030960;28;20099;-64
2021/10/16 08:57:50;;;;;;;0.70;0.70;;;2.20;99.90;;;;;;5031017;28;20409;-64
2021/10/16 09:00:39;;;;;;;0.73;0.68;;;2.20;99.90;;;;;;5031314;28;20021;-64
2021/10/16 09:03:40;;;;;;;0.70;0.70;;;2.60;99.90;;;;;;5022073;28;20026;-63
2021/10/16 09:06:33;;;;;;;2.20;0.80;;;2.50;99.90;;;;;;5038885;28;20052;-64
2021/10/16 09:09:05;;;;;;;0.73;0.60;;;2.40;99.90;;;;;;5034753;28;20030;-65
2021/10/16 09:11:39;;;;;;;0.70;0.70;;;2.40;99.90;;;;;;5034654;28;20021;-67
2021/10/16 09:14:13;;;;;;;0.57;0.50;;;2.40;99.90;;;;;;5034705;28;20065;-65
2021/10/16 09:16:45;;;;;;;1.33;0.90;;;2.90;99.90;;;;;;5034649;28;20018;-64
2021/10/16 09:19:13;;;;;;;2.28;1.30;;;2.80;99.90;;;;;;5026525;28;20128;-64
2021/10/16 09:22:09;;;;;;;1.73;1.35;;;2.60;99.90;;;;;;5031402;28;20026;-64
2021/10/16 09:24:42;;;;;;;0.70;0.70;;;3.10;99.90;;;;;;5033477;28;20032;-64
2021/10/16 09:27:24;;;;;;;0.50;0.50;;;3.40;99.90;;;;;;5034541;28;20556;-64
2021/10/16 09:29:53;;;;;;;0.70;0.70;;;3.00;99.90;;;;;;5034130;28;20037;-64
2021/10/16 09:32:25;;;;;;;1.27;1.10;;;2.80;99.90;;;;;;5033961;28;20100;-64
2021/10/16 09:34:59;;;;;;;0.73;0.70;;;2.60;99.90;;;;;;5034412;28;20025;-64
2021/10/16 09:37:25;;;;;;;1.10;1.00;;;2.50;99.90;;;;;;5020862;28;20021;-64
2021/10/16 09:39:58;;;;;;;1.13;1.02;;;2.50;99.90;;;;;;5034157;28;20036;-64
2021/10/16 09:42:30;;;;;;;0.50;0.50;;;2.40;99.90;;;;;;5034286;28;20518;-64
2021/10/16 09:44:57;;;;;;;0.73;0.70;;;2.40;99.90;;;;;;5033382;28;20419;-64
2021/10/16 09:47:23;;;;;;;0.70;0.70;;;2.40;99.90;;;;;;5021500;28;20018;-64
2021/10/16 09:49:57;;;;;;;0.52;0.50;;;2.40;99.90;;;;;;5033818;28;20032;-64
2021/10/16 09:52:42;;;;;;;0.65;0.65;;;2.40;99.90;;;;;;5018184;28;20010;-64
2021/10/16 09:55:11;;;;;;;0.63;0.63;;;2.40;99.90;;;;;;5016881;28;20088;-66
2021/10/16 09:57:39;;;;;;;0.93;0.60;;;2.40;99.90;;;;;;5033559;28;20100;-65
2021/10/16 10:00:06;;;;;;;0.65;0.65;;;2.40;99.90;;;;;;5034042;28;20076;-67
2021/10/16 10:02:33;;;;;;;0.60;0.60;;;2.30;99.90;;;;;;5033875;28;20064;-67
2021/10/16 10:05:03;;;;;;;0.60;0.60;;;2.40;99.90;;;;;;5033733;28;20044;-66
2021/10/16 10:07:31;;;;;;;1.48;0.60;;;2.30;99.90;;;;;;5033525;28;20034;-66
2021/10/16 10:09:58;;;;;;;0.85;0.70;;;2.30;99.90;;;;;;5033577;28;20022;-67
2021/10/16 10:12:25;;;;;;;0.70;0.70;;;2.30;99.90;;;;;;5033341;28;20087;-66
2021/10/16 10:14:52;;;;;;;1.10;0.68;;;2.40;99.90;;;;;;5032611;28;20026;-66
2021/10/16 10:17:26;;;;;;;1.92;0.60;;;2.30;99.90;;;;;;5034065;28;20025;-66
2021/10/16 10:20:04;;;;;;;0.70;0.70;;;2.40;99.90;;;;;;5033442;28;20401;-66
2021/10/16 10:22:35;;;;;;;0.68;0.68;;;2.40;99.90;;;;;;5033423;28;20481;-67
2021/10/16 10:25:03;;;;;;;1.08;0.80;;;2.40;99.90;;;;;;5033533;28;20025;-67
2021/10/16 10:27:44;;;;;;;0.73;0.43;;;2.50;99.90;;;;;;5023820;28;20022;-66
2021/10/16 10:30:33;;;;;;;1.52;0.60;;;2.60;99.90;;;;;;5016718;28;20029;-67
2021/10/16 10:33:22;;;;;;;0.80;0.80;;;2.60;99.90;;;;;;5025957;28;20037;-67
2021/10/16 10:36:06;;;;;;;0.60;0.60;;;2.70;99.90;;;;;;5021119;28;20489;-67
2021/10/16 10:38:37;;;;;;;0.70;0.70;;;2.60;99.90;;;;;;5018952;28;20032;-67
2021/10/16 10:41:21;;;;;;;0.70;0.70;;;2.60;99.90;;;;;;5017562;28;20524;-67
2021/10/16 10:43:47;;;;;;;1.30;0.70;;;2.70;99.90;;;;;;5017150;28;20033;-67
2021/10/16 10:46:13;;;;;;;2.58;0.70;;;2.70;99.90;;;;;;5020692;28;20025;-67
2021/10/16 10:48:43;;;;;;;0.70;0.60;;;2.70;99.90;;;;;;5029059;28;20021;-67
2021/10/16 10:51:09;;;;;;;1.08;0.85;;;2.70;99.90;;;;;;5033274;28;20366;-67
2021/10/16 10:53:37;;;;;;;0.70;0.60;;;2.70;99.90;;;;;;5031360;28;20465;-68
2021/10/16 10:56:15;;;;;;;0.95;0.60;;;2.70;99.90;;;;;;5033115;28;20104;-68
2021/10/16 10:58:50;;;;;;;0.95;0.60;;;2.70;99.90;;;;;;5032905;28;20025;-68
2021/10/16 11:01:44;;;;;;;0.70;0.70;;;2.70;99.90;;;;;;5032879;28;20070;-68
2021/10/16 11:04:11;;;;;;;0.70;0.70;;;2.70;99.90;;;;;;5021067;28;20422;-68
2021/10/16 11:06:36;;;;;;;0.60;0.60;;;2.70;99.90;;;;;;5032374;28;20488;-68
2021/10/16 11:09:18;;;;;;;1.35;0.50;;;2.70;99.90;;;;;;5032630;28;20030;-68
2021/10/16 11:11:50;;;;;;;0.60;0.60;;;2.60;99.90;;;;;;5032477;28;20032;-68
2021/10/16 11:14:17;;;;;;;0.77;0.70;;;2.60;99.90;;;;;;5016817;28;20038;-68
2021/10/16 11:17:00;;;;;;;0.50;0.50;;;2.70;99.90;;;;;;5026157;28;20028;-68
2021/10/16 11:19:26;;;;;;;0.70;0.70;;;2.70;99.90;;;;;;5032250;28;20022;-68
2021/10/16 11:21:58;;;;;;;0.80;0.70;;;2.70;99.90;;;;;;5025839;28;20097;-69
2021/10/16 11:24:26;;;;;;;2.95;0.80;;;2.60;99.90;;;;;;5015813;28;20114;-67
2021/10/16 11:26:57;;;;;;;1.00;0.82;;;2.60;99.90;;;;;;5026834;28;20049;-68
2021/10/16 11:29:37;;;;;;;1.05;0.80;;;3.10;99.90;;;;;;5031763;28;20029;-68
2021/10/16 11:32:21;;;;;;;0.82;0.82;;;3.50;99.90;;;;;;5032490;28;20056;-67
2021/10/16 11:35:07;;;;;;;0.88;0.70;;;3.30;99.90;;;;;;5031984;28;20120;-69
2021/10/16 11:37:45;;;;;;;0.70;0.70;;;3.20;99.90;;;;;;5032125;28;20045;-67
2021/10/16 11:40:16;;;;;;;0.75;0.73;;;4.40;99.90;;;;;;5032049;28;20018;-67
2021/10/16 11:42:50;;;;;;;0.75;0.60;;;5.00;99.90;;;;;;5032175;28;20018;-67
2021/10/16 11:45:19;;;;;;;0.60;0.60;;;5.50;99.90;;;;;;5029924;28;20021;-67
2021/10/16 11:47:49;;;;;;;0.60;0.60;;;4.80;99.90;;;;;;5021217;28;20033;-67
2021/10/16 11:50:18;;;;;;;0.63;0.63;;;4.20;99.90;;;;;;5031860;28;20026;-68
2021/10/16 11:52:45;;;;;;;0.85;0.70;;;3.80;99.90;;;;;;5031611;28;20183;-70
2021/10/16 11:55:12;;;;;;;0.77;0.70;;;3.60;99.90;;;;;;5031555;28;20091;-66
2021/10/16 11:57:39;;;;;;;0.57;0.57;;;3.40;99.90;;;;;;5031843;28;20041;-67
2021/10/16 12:00:16;;;;;;;0.60;0.60;;;3.30;99.90;;;;;;5023157;28;20030;-67
2021/10/16 12:02:42;;;;;;;0.63;0.63;;;3.20;99.90;;;;;;5018110;28;20029;-68
2021/10/16 12:05:16;;;;;;;0.85;0.60;;;3.90;99.90;;;;;;5022565;28;20026;-67
2021/10/16 12:07:46;;;;;;;0.60;0.60;;;3.90;99.90;;;;;;5030851;28;20021;-67
2021/10/16 12:10:22;;;;;;;1.30;0.80;;;3.60;99.90;;;;;;5031491;28;20643;-65
2021/10/16 12:12:55;;;;;;;0.65;0.60;;;3.40;99.90;;;;;;5023984;28;20116;-68
2021/10/16 12:15:21;;;;;;;2.65;0.70;;;3.20;99.90;;;;;;5031158;28;20029;-68
2021/10/16 12:17:47;;;;;;;1.90;0.73;;;3.20;99.90;;;;;;5025011;28;20021;-68
2021/10/16 12:20:13;;;;;;;0.73;0.63;;;3.00;99.90;;;;;;5031514;28;20033;-68
2021/10/16 12:23:00;;;;;;;0.80;0.80;;;3.00;99.90;;;;;;5023101;28;20037;-67
2021/10/16 12:25:26;;;;;;;0.63;0.63;;;3.00;99.90;;;;;;5031501;28;20079;-68
2021/10/16 12:28:02;;;;;;;0.70;0.70;;;2.90;99.90;;;;;;5023620;28;20034;-68
2021/10/16 12:30:28;;;;;;;2.10;1.38;;;2.90;99.90;;;;;;5025109;28;20018;-67
2021/10/16 12:33:21;;;;;;;0.88;0.88;;;2.90;99.90;;;;;;5031177;28;20037;-67
2021/10/16 12:35:57;;;;;;;0.95;0.95;;;2.80;99.90;;;;;;5027154;28;20580;-66
2021/10/16 12:38:22;;;;;;;1.15;0.73;;;2.80;99.90;;;;;;5034913;28;20084;-66
2021/10/16 12:40:48;;;;;;;0.75;0.70;;;2.70;99.90;;;;;;5035285;28;20026;-66
2021/10/16 12:43:28;;;;;;;0.70;0.70;;;2.80;99.90;;;;;;5035198;28;20092;-66
2021/10/16 12:45:55;;;;;;;0.75;0.60;;;2.70;99.90;;;;;;5027790;28;20022;-66
2021/10/16 12:48:22;;;;;;;1.02;0.90;;;2.70;99.90;;;;;;5029087;28;20523;-66
2021/10/16 12:50:50;;;;;;;0.80;0.80;;;2.70;99.90;;;;;;5035137;28;20037;-66
2021/10/16 12:53:16;;;;;;;0.88;0.80;;;2.70;99.90;;;;;;5035162;28;20021;-66
2021/10/16 12:55:42;;;;;;;3.13;0.80;;;2.70;99.90;;;;;;5034776;28;20125;-66
2021/10/16 12:58:08;;;;;;;1.60;0.70;;;2.70;99.90;;;;;;5035121;28;20507;-66
2021/10/16 13:00:34;;;;;;;1.58;0.68;;;2.60;99.90;;;;;;5035263;28;20036;-66
2021/10/16 13:03:00;;;;;;;1.05;0.90;;;2.70;99.90;;;;;;5035260;28;20387;-66
2021/10/16 13:05:27;;;;;;;1.02;0.80;;;2.60;99.90;;;;;;5034841;28;20029;-66
2021/10/16 13:07:53;;;;;;;0.82;0.80;;;2.60;99.90;;;;;;5034991;28;20025;-66
2021/10/16 13:10:19;;;;;;;0.70;0.70;;;2.60;99.90;;;;;;5034469;28;20029;-66
2021/10/16 13:12:45;;;;;;;1.60;1.00;;;2.60;99.90;;;;;;5030517;28;20069;-67
2021/10/16 13:15:13;;;;;;;0.93;0.93;;;2.60;99.90;;;;;;5021827;28;20030;-67
2021/10/16 13:17:38;;;;;;;2.38;1.30;;;2.60;99.90;;;;;;5021708;28;20029;-67
2021/10/16 13:20:06;;;;;;;0.80;0.80;;;2.60;99.90;;;;;;5034365;28;20025;-66
2021/10/16 13:22:32;;;;;;;1.15;0.90;;;2.60;99.90;;;;;;5034702;28;20072;-68
2021/10/16 13:24:59;;;;;;;1.20;1.10;;;2.60;99.90;;;;;;5034275;28;20021;-68
2021/10/16 13:27:25;;;;;;;0.73;0.73;;;2.60;99.90;;;;;;5030707;28;20037;-68
2021/10/16 13:29:52;;;;;;;0.90;0.90;;;2.60;99.90;;;;;;5030475;28;20065;-67
2021/10/16 13:32:18;;;;;;;1.33;1.23;;;2.60;99.90;;;;;;5028441;28;20017;-68
2021/10/16 13:34:44;;;;;;;1.00;0.90;;;2.60;99.90;;;;;;5024879;28;20037;-68